sensor_id;sensor_type;location;lat;lon;timestamp;P1;durP1;ratioP1;P2;durP2;ratioP2
27201;SDS011;14717;46.924;15.474;2023-02-28T00:02:16;8.88;;;4.65;;
27201;SDS011;14717;46.924;15.474;2023-02-28T00:04:42;9.20;;;4.60;;
27201;SDS011;14717;46.924;15.474;2023-02-28T00:07:08;8.60;;;4.20;;
27201;SDS011;14717;46.924;15.474;2023-02-28T00:09:34;10.10;;;4.28;;
27201;SDS011;14717;46.924;15.474;2023-02-28T00:11:59;8.25;;;4.25;;
27201;SDS011;14717;46.924;15.474;2023-02-28T00:14:24;11.57;;;5.03;;
27201;SDS011;14717;46.924;15.474;2023-02-28T00:16:50;9.50;;;4.68;;
27201;SDS011;14717;46.924;15.474;2023-02-28T00:19:15;9.18;;;4.53;;
27201;SDS011;14717;46.924;15.474;2023-02-28T00:21:40;7.30;;;3.65;;
27201;SDS011;14717;46.924;15.474;2023-02-28T00:24:06;7.35;;;4.15;;
27201;SDS011;14717;46.924;15.474;2023-02-28T00:26:32;6.72;;;3.70;;
27201;SDS011;14717;46.924;15.474;2023-02-28T00:28:57;8.38;;;4.07;;
27201;SDS011;14717;46.924;15.474;2023-02-28T00:31:23;6.22;;;3.60;;
27201;SDS011;14717;46.924;15.474;2023-02-28T00:33:48;5.78;;;3.67;;
27201;SDS011;14717;46.924;15.474;2023-02-28T00:36:14;6.40;;;4.07;;
27201;SDS011;14717;46.924;15.474;2023-02-28T00:38:39;5.70;;;3.40;;
27201;SDS011;14717;46.924;15.474;2023-02-28T00:41:06;6.60;;;4.05;;
27201;SDS011;14717;46.924;15.474;2023-02-28T00:43:33;6.90;;;3.67;;
27201;SDS011;14717;46.924;15.474;2023-02-28T00:45:59;6.47;;;3.28;;
27201;SDS011;14717;46.924;15.474;2023-02-28T00:48:25;5.07;;;3.50;;
27201;SDS011;14717;46.924;15.474;2023-02-28T00:50:50;8.63;;;4.05;;
27201;SDS011;14717;46.924;15.474;2023-02-28T00:53:15;6.18;;;3.45;;
27201;SDS011;14717;46.924;15.474;2023-02-28T00:55:41;5.80;;;3.38;;
27201;SDS011;14717;46.924;15.474;2023-02-28T00:58:06;5.18;;;3.40;;
27201;SDS011;14717;46.924;15.474;2023-02-28T01:00:32;6.97;;;3.47;;
27201;SDS011;14717;46.924;15.474;2023-02-28T01:02:57;5.65;;;3.35;;
27201;SDS011;14717;46.924;15.474;2023-02-28T01:05:22;8.77;;;3.70;;
27201;SDS011;14717;46.924;15.474;2023-02-28T01:07:48;7.03;;;3.47;;
27201;SDS011;14717;46.924;15.474;2023-02-28T01:10:14;6.72;;;3.50;;
27201;SDS011;14717;46.924;15.474;2023-02-28T01:12:39;7.68;;;3.47;;
27201;SDS011;14717;46.924;15.474;2023-02-28T01:15:04;6.63;;;3.70;;
27201;SDS011;14717;46.924;15.474;2023-02-28T01:17:30;5.50;;;3.42;;
27201;SDS011;14717;46.924;15.474;2023-02-28T01:19:56;6.65;;;3.40;;
27201;SDS011;14717;46.924;15.474;2023-02-28T01:22:21;5.80;;;3.60;;
27201;SDS011;14717;46.924;15.474;2023-02-28T01:24:47;6.40;;;3.35;;
27201;SDS011;14717;46.924;15.474;2023-02-28T01:27:13;5.57;;;3.13;;
27201;SDS011;14717;46.924;15.474;2023-02-28T01:29:38;9.30;;;3.88;;
27201;SDS011;14717;46.924;15.474;2023-02-28T01:32:03;7.07;;;3.20;;
27201;SDS011;14717;46.924;15.474;2023-02-28T01:34:29;8.15;;;3.47;;
27201;SDS011;14717;46.924;15.474;2023-02-28T01:36:54;5.90;;;3.35;;
27201;SDS011;14717;46.924;15.474;2023-02-28T01:39:20;5.68;;;3.40;;
27201;SDS011;14717;46.924;15.474;2023-02-28T01:41:45;6.10;;;3.65;;
27201;SDS011;14717;46.924;15.474;2023-02-28T01:47:14;5.32;;;3.35;;
27201;SDS011;14717;46.924;15.474;2023-02-28T01:49:40;7.55;;;4.15;;
27201;SDS011;14717;46.924;15.474;2023-02-28T01:52:05;7.82;;;3.63;;
27201;SDS011;14717;46.924;15.474;2023-02-28T01:54:33;6.72;;;3.75;;
27201;SDS011;14717;46.924;15.474;2023-02-28T01:57:01;8.20;;;3.80;;
27201;SDS011;14717;46.924;15.474;2023-02-28T01:59:35;6.15;;;3.72;;
27201;SDS011;14717;46.924;15.474;2023-02-28T02:02:05;5.38;;;3.60;;
27201;SDS011;14717;46.924;15.474;2023-02-28T02:04:39;7.10;;;4.13;;
27201;SDS011;14717;46.924;15.474;2023-02-28T02:07:11;6.20;;;3.33;;
27201;SDS011;14717;46.924;15.474;2023-02-28T02:09:38;5.28;;;3.72;;
27201;SDS011;14717;46.924;15.474;2023-02-28T02:17:39;8.65;;;4.15;;
27201;SDS011;14717;46.924;15.474;2023-02-28T02:20:22;6.72;;;3.42;;
27201;SDS011;14717;46.924;15.474;2023-02-28T02:22:54;6.55;;;3.50;;
27201;SDS011;14717;46.924;15.474;2023-02-28T02:36:10;7.13;;;4.28;;
27201;SDS011;14717;46.924;15.474;2023-02-28T02:38:46;7.88;;;4.32;;
27201;SDS011;14717;46.924;15.474;2023-02-28T02:41:21;7.20;;;4.47;;
27201;SDS011;14717;46.924;15.474;2023-02-28T02:43:54;11.45;;;4.85;;
27201;SDS011;14717;46.924;15.474;2023-02-28T02:46:28;7.97;;;4.38;;
27201;SDS011;14717;46.924;15.474;2023-02-28T02:48:58;8.15;;;4.68;;
27201;SDS011;14717;46.924;15.474;2023-02-28T02:51:25;9.85;;;5.28;;
27201;SDS011;14717;46.924;15.474;2023-02-28T02:53:56;8.48;;;4.93;;
27201;SDS011;14717;46.924;15.474;2023-02-28T02:56:29;9.57;;;5.28;;
27201;SDS011;14717;46.924;15.474;2023-02-28T02:59:02;9.27;;;4.57;;
27201;SDS011;14717;46.924;15.474;2023-02-28T03:01:31;9.57;;;5.10;;
27201;SDS011;14717;46.924;15.474;2023-02-28T03:04:01;9.93;;;5.15;;
27201;SDS011;14717;46.924;15.474;2023-02-28T03:06:30;9.82;;;5.30;;
27201;SDS011;14717;46.924;15.474;2023-02-28T03:08:58;11.05;;;5.10;;
27201;SDS011;14717;46.924;15.474;2023-02-28T03:11:25;9.05;;;4.65;;
27201;SDS011;14717;46.924;15.474;2023-02-28T03:21:40;9.40;;;4.95;;
27201;SDS011;14717;46.924;15.474;2023-02-28T03:26:54;7.55;;;4.25;;
27201;SDS011;14717;46.924;15.474;2023-02-28T03:34:24;7.88;;;4.93;;
27201;SDS011;14717;46.924;15.474;2023-02-28T03:37:00;7.88;;;4.90;;
27201;SDS011;14717;46.924;15.474;2023-02-28T03:39:39;8.93;;;4.90;;
27201;SDS011;14717;46.924;15.474;2023-02-28T03:42:11;9.57;;;4.63;;
27201;SDS011;14717;46.924;15.474;2023-02-28T03:50:13;10.18;;;4.82;;
27201;SDS011;14717;46.924;15.474;2023-02-28T03:55:32;8.38;;;4.57;;
27201;SDS011;14717;46.924;15.474;2023-02-28T03:58:05;8.70;;;4.90;;
27201;SDS011;14717;46.924;15.474;2023-02-28T04:00:38;9.85;;;4.97;;
27201;SDS011;14717;46.924;15.474;2023-02-28T04:03:06;8.82;;;5.03;;
27201;SDS011;14717;46.924;15.474;2023-02-28T04:05:32;9.35;;;5.03;;
27201;SDS011;14717;46.924;15.474;2023-02-28T04:10:31;9.27;;;5.18;;
27201;SDS011;14717;46.924;15.474;2023-02-28T04:12:56;11.05;;;5.20;;
27201;SDS011;14717;46.924;15.474;2023-02-28T04:15:21;8.00;;;4.40;;
27201;SDS011;14717;46.924;15.474;2023-02-28T04:17:49;9.82;;;4.88;;
27201;SDS011;14717;46.924;15.474;2023-02-28T04:20:15;11.18;;;5.22;;
27201;SDS011;14717;46.924;15.474;2023-02-28T04:22:40;9.20;;;4.95;;
27201;SDS011;14717;46.924;15.474;2023-02-28T04:25:06;10.27;;;5.38;;
27201;SDS011;14717;46.924;15.474;2023-02-28T04:27:32;9.63;;;5.38;;
27201;SDS011;14717;46.924;15.474;2023-02-28T04:29:57;8.55;;;4.93;;
27201;SDS011;14717;46.924;15.474;2023-02-28T04:32:23;9.18;;;4.75;;
27201;SDS011;14717;46.924;15.474;2023-02-28T04:34:48;9.10;;;5.15;;
27201;SDS011;14717;46.924;15.474;2023-02-28T04:37:14;7.68;;;4.68;;
27201;SDS011;14717;46.924;15.474;2023-02-28T04:39:39;11.65;;;5.63;;
27201;SDS011;14717;46.924;15.474;2023-02-28T04:42:05;11.80;;;5.25;;
27201;SDS011;14717;46.924;15.474;2023-02-28T04:44:31;10.82;;;5.90;;
27201;SDS011;14717;46.924;15.474;2023-02-28T04:46:56;9.50;;;4.75;;
27201;SDS011;14717;46.924;15.474;2023-02-28T04:49:22;9.98;;;5.88;;
27201;SDS011;14717;46.924;15.474;2023-02-28T04:51:47;14.25;;;6.93;;
27201;SDS011;14717;46.924;15.474;2023-02-28T04:54:14;13.80;;;6.45;;
27201;SDS011;14717;46.924;15.474;2023-02-28T04:56:41;11.57;;;5.90;;
27201;SDS011;14717;46.924;15.474;2023-02-28T04:59:06;10.50;;;5.47;;
27201;SDS011;14717;46.924;15.474;2023-02-28T05:01:32;10.85;;;5.93;;
27201;SDS011;14717;46.924;15.474;2023-02-28T05:03:59;12.60;;;6.38;;
27201;SDS011;14717;46.924;15.474;2023-02-28T05:06:27;11.20;;;5.53;;
27201;SDS011;14717;46.924;15.474;2023-02-28T05:08:55;10.65;;;5.57;;
27201;SDS011;14717;46.924;15.474;2023-02-28T05:11:21;8.65;;;5.05;;
27201;SDS011;14717;46.924;15.474;2023-02-28T05:13:50;9.95;;;4.85;;
27201;SDS011;14717;46.924;15.474;2023-02-28T05:16:16;10.05;;;4.82;;
27201;SDS011;14717;46.924;15.474;2023-02-28T05:18:42;7.22;;;4.45;;
27201;SDS011;14717;46.924;15.474;2023-02-28T05:21:22;9.02;;;4.78;;
27201;SDS011;14717;46.924;15.474;2023-02-28T05:23:49;11.40;;;4.70;;
27201;SDS011;14717;46.924;15.474;2023-02-28T05:26:14;10.27;;;4.93;;
27201;SDS011;14717;46.924;15.474;2023-02-28T05:28:39;10.07;;;4.80;;
27201;SDS011;14717;46.924;15.474;2023-02-28T05:31:05;10.93;;;4.60;;
27201;SDS011;14717;46.924;15.474;2023-02-28T05:33:30;9.63;;;4.93;;
27201;SDS011;14717;46.924;15.474;2023-02-28T05:35:55;8.10;;;4.50;;
27201;SDS011;14717;46.924;15.474;2023-02-28T05:38:21;9.15;;;5.03;;
27201;SDS011;14717;46.924;15.474;2023-02-28T05:40:46;11.23;;;4.55;;
27201;SDS011;14717;46.924;15.474;2023-02-28T05:43:11;10.57;;;4.70;;
27201;SDS011;14717;46.924;15.474;2023-02-28T05:45:37;10.38;;;4.82;;
27201;SDS011;14717;46.924;15.474;2023-02-28T05:48:02;11.65;;;4.93;;
27201;SDS011;14717;46.924;15.474;2023-02-28T05:50:28;11.77;;;6.00;;
27201;SDS011;14717;46.924;15.474;2023-02-28T05:52:53;12.00;;;5.50;;
27201;SDS011;14717;46.924;15.474;2023-02-28T05:55:19;13.82;;;5.68;;
27201;SDS011;14717;46.924;15.474;2023-02-28T05:57:44;14.02;;;6.70;;
27201;SDS011;14717;46.924;15.474;2023-02-28T06:00:10;15.63;;;6.28;;
27201;SDS011;14717;46.924;15.474;2023-02-28T06:02:38;10.80;;;5.85;;
27201;SDS011;14717;46.924;15.474;2023-02-28T06:05:04;9.20;;;4.97;;
27201;SDS011;14717;46.924;15.474;2023-02-28T06:07:29;9.85;;;4.95;;
27201;SDS011;14717;46.924;15.474;2023-02-28T06:09:55;9.25;;;4.97;;
27201;SDS011;14717;46.924;15.474;2023-02-28T06:12:20;11.95;;;5.05;;
27201;SDS011;14717;46.924;15.474;2023-02-28T06:14:45;11.65;;;5.47;;
27201;SDS011;14717;46.924;15.474;2023-02-28T06:17:11;9.88;;;5.00;;
27201;SDS011;14717;46.924;15.474;2023-02-28T06:19:37;9.40;;;4.93;;
27201;SDS011;14717;46.924;15.474;2023-02-28T06:22:04;11.68;;;5.57;;
27201;SDS011;14717;46.924;15.474;2023-02-28T06:24:30;12.40;;;5.25;;
27201;SDS011;14717;46.924;15.474;2023-02-28T06:26:56;11.25;;;5.93;;
27201;SDS011;14717;46.924;15.474;2023-02-28T06:29:23;13.23;;;6.40;;
27201;SDS011;14717;46.924;15.474;2023-02-28T06:31:49;25.63;;;10.27;;
27201;SDS011;14717;46.924;15.474;2023-02-28T06:34:15;22.10;;;9.48;;
27201;SDS011;14717;46.924;15.474;2023-02-28T06:36:41;16.88;;;8.75;;
27201;SDS011;14717;46.924;15.474;2023-02-28T06:39:07;15.38;;;7.57;;
27201;SDS011;14717;46.924;15.474;2023-02-28T06:41:33;14.60;;;6.47;;
27201;SDS011;14717;46.924;15.474;2023-02-28T06:44:02;13.95;;;6.10;;
27201;SDS011;14717;46.924;15.474;2023-02-28T06:46:36;14.52;;;6.85;;
27201;SDS011;14717;46.924;15.474;2023-02-28T06:49:03;10.23;;;5.22;;
27201;SDS011;14717;46.924;15.474;2023-02-28T06:51:28;11.05;;;5.10;;
27201;SDS011;14717;46.924;15.474;2023-02-28T06:53:54;11.35;;;5.35;;
27201;SDS011;14717;46.924;15.474;2023-02-28T06:56:19;12.20;;;5.97;;
27201;SDS011;14717;46.924;15.474;2023-02-28T06:58:48;11.15;;;5.30;;
27201;SDS011;14717;46.924;15.474;2023-02-28T07:01:15;11.18;;;5.15;;
27201;SDS011;14717;46.924;15.474;2023-02-28T07:03:41;12.45;;;5.70;;
27201;SDS011;14717;46.924;15.474;2023-02-28T07:06:06;12.60;;;6.78;;
27201;SDS011;14717;46.924;15.474;2023-02-28T07:08:32;9.52;;;5.57;;
27201;SDS011;14717;46.924;15.474;2023-02-28T07:10:58;12.80;;;5.00;;
27201;SDS011;14717;46.924;15.474;2023-02-28T07:13:24;7.80;;;4.88;;
27201;SDS011;14717;46.924;15.474;2023-02-28T07:15:56;8.07;;;4.70;;
27201;SDS011;14717;46.924;15.474;2023-02-28T07:18:26;17.33;;;8.10;;
27201;SDS011;14717;46.924;15.474;2023-02-28T07:20:52;14.88;;;6.30;;
27201;SDS011;14717;46.924;15.474;2023-02-28T07:23:17;14.70;;;6.10;;
27201;SDS011;14717;46.924;15.474;2023-02-28T07:25:43;17.45;;;7.65;;
27201;SDS011;14717;46.924;15.474;2023-02-28T07:28:10;10.85;;;5.32;;
27201;SDS011;14717;46.924;15.474;2023-02-28T07:30:36;20.25;;;8.45;;
27201;SDS011;14717;46.924;15.474;2023-02-28T07:33:01;16.98;;;7.38;;
27201;SDS011;14717;46.924;15.474;2023-02-28T07:35:27;19.83;;;8.35;;
27201;SDS011;14717;46.924;15.474;2023-02-28T07:37:52;24.55;;;9.32;;
27201;SDS011;14717;46.924;15.474;2023-02-28T07:40:17;16.30;;;7.55;;
27201;SDS011;14717;46.924;15.474;2023-02-28T07:42:43;14.90;;;7.10;;
27201;SDS011;14717;46.924;15.474;2023-02-28T07:45:10;13.93;;;6.70;;
27201;SDS011;14717;46.924;15.474;2023-02-28T07:47:37;11.32;;;5.93;;
27201;SDS011;14717;46.924;15.474;2023-02-28T07:50:03;10.13;;;5.28;;
27201;SDS011;14717;46.924;15.474;2023-02-28T07:52:28;11.05;;;5.45;;
27201;SDS011;14717;46.924;15.474;2023-02-28T07:54:54;10.25;;;5.88;;
27201;SDS011;14717;46.924;15.474;2023-02-28T07:57:19;8.73;;;5.47;;
27201;SDS011;14717;46.924;15.474;2023-02-28T07:59:44;16.15;;;5.95;;
27201;SDS011;14717;46.924;15.474;2023-02-28T08:02:13;11.80;;;6.00;;
27201;SDS011;14717;46.924;15.474;2023-02-28T08:04:39;14.18;;;6.05;;
27201;SDS011;14717;46.924;15.474;2023-02-28T08:07:05;9.00;;;4.93;;
27201;SDS011;14717;46.924;15.474;2023-02-28T08:09:30;9.70;;;5.25;;
27201;SDS011;14717;46.924;15.474;2023-02-28T08:11:55;13.23;;;5.00;;
27201;SDS011;14717;46.924;15.474;2023-02-28T08:14:21;11.80;;;5.75;;
27201;SDS011;14717;46.924;15.474;2023-02-28T08:16:46;12.38;;;5.53;;
27201;SDS011;14717;46.924;15.474;2023-02-28T08:19:12;12.70;;;5.95;;
27201;SDS011;14717;46.924;15.474;2023-02-28T08:21:37;12.32;;;6.15;;
27201;SDS011;14717;46.924;15.474;2023-02-28T08:24:02;13.30;;;5.13;;
27201;SDS011;14717;46.924;15.474;2023-02-28T08:26:28;11.38;;;5.43;;
27201;SDS011;14717;46.924;15.474;2023-02-28T08:28:53;10.25;;;5.05;;
27201;SDS011;14717;46.924;15.474;2023-02-28T08:31:19;10.23;;;5.20;;
27201;SDS011;14717;46.924;15.474;2023-02-28T08:33:44;11.50;;;6.13;;
27201;SDS011;14717;46.924;15.474;2023-02-28T08:36:12;12.95;;;6.20;;
27201;SDS011;14717;46.924;15.474;2023-02-28T08:38:37;9.68;;;5.18;;
27201;SDS011;14717;46.924;15.474;2023-02-28T08:41:05;12.50;;;5.57;;
27201;SDS011;14717;46.924;15.474;2023-02-28T08:43:33;12.23;;;5.18;;
27201;SDS011;14717;46.924;15.474;2023-02-28T08:45:59;11.30;;;5.30;;
27201;SDS011;14717;46.924;15.474;2023-02-28T08:48:28;12.15;;;5.40;;
27201;SDS011;14717;46.924;15.474;2023-02-28T08:51:05;13.88;;;5.88;;
27201;SDS011;14717;46.924;15.474;2023-02-28T08:56:00;13.60;;;5.57;;
27201;SDS011;14717;46.924;15.474;2023-02-28T08:58:29;13.18;;;6.18;;
27201;SDS011;14717;46.924;15.474;2023-02-28T09:00:54;12.57;;;5.70;;
27201;SDS011;14717;46.924;15.474;2023-02-28T09:03:20;13.15;;;6.38;;
27201;SDS011;14717;46.924;15.474;2023-02-28T09:05:56;12.57;;;5.60;;
27201;SDS011;14717;46.924;15.474;2023-02-28T09:08:24;13.63;;;5.78;;
27201;SDS011;14717;46.924;15.474;2023-02-28T09:10:50;11.30;;;5.60;;
27201;SDS011;14717;46.924;15.474;2023-02-28T09:13:17;12.68;;;5.40;;
27201;SDS011;14717;46.924;15.474;2023-02-28T09:15:43;9.32;;;5.55;;
27201;SDS011;14717;46.924;15.474;2023-02-28T09:18:09;10.40;;;5.10;;
27201;SDS011;14717;46.924;15.474;2023-02-28T09:20:36;11.57;;;6.13;;
27201;SDS011;14717;46.924;15.474;2023-02-28T09:23:03;13.93;;;6.32;;
27201;SDS011;14717;46.924;15.474;2023-02-28T09:25:28;12.68;;;5.75;;
27201;SDS011;14717;46.924;15.474;2023-02-28T09:27:53;11.27;;;5.47;;
27201;SDS011;14717;46.924;15.474;2023-02-28T09:30:19;11.98;;;5.97;;
27201;SDS011;14717;46.924;15.474;2023-02-28T09:32:44;11.65;;;6.40;;
27201;SDS011;14717;46.924;15.474;2023-02-28T09:35:16;14.15;;;6.38;;
27201;SDS011;14717;46.924;15.474;2023-02-28T09:37:42;11.05;;;6.55;;
27201;SDS011;14717;46.924;15.474;2023-02-28T09:40:09;14.93;;;7.10;;
27201;SDS011;14717;46.924;15.474;2023-02-28T09:42:35;11.55;;;6.18;;
27201;SDS011;14717;46.924;15.474;2023-02-28T09:45:02;11.90;;;5.85;;
27201;SDS011;14717;46.924;15.474;2023-02-28T09:47:38;12.40;;;5.85;;
27201;SDS011;14717;46.924;15.474;2023-02-28T09:52:43;13.32;;;6.68;;
27201;SDS011;14717;46.924;15.474;2023-02-28T09:55:27;14.20;;;7.03;;
27201;SDS011;14717;46.924;15.474;2023-02-28T09:57:58;17.38;;;6.93;;
27201;SDS011;14717;46.924;15.474;2023-02-28T10:00:36;12.05;;;6.35;;
27201;SDS011;14717;46.924;15.474;2023-02-28T10:05:52;13.45;;;5.88;;
27201;SDS011;14717;46.924;15.474;2023-02-28T10:08:31;13.05;;;6.22;;
27201;SDS011;14717;46.924;15.474;2023-02-28T10:11:06;12.18;;;6.28;;
27201;SDS011;14717;46.924;15.474;2023-02-28T10:18:47;12.40;;;6.33;;
27201;SDS011;14717;46.924;15.474;2023-02-28T10:21:27;11.43;;;6.47;;
27201;SDS011;14717;46.924;15.474;2023-02-28T10:24:18;13.75;;;6.97;;
27201;SDS011;14717;46.924;15.474;2023-02-28T10:26:48;14.40;;;6.63;;
27201;SDS011;14717;46.924;15.474;2023-02-28T10:29:17;13.30;;;6.25;;
27201;SDS011;14717;46.924;15.474;2023-02-28T10:31:43;12.02;;;5.95;;
27201;SDS011;14717;46.924;15.474;2023-02-28T10:34:10;11.10;;;6.28;;
27201;SDS011;14717;46.924;15.474;2023-02-28T10:36:37;12.05;;;5.97;;
27201;SDS011;14717;46.924;15.474;2023-02-28T10:39:33;13.48;;;6.15;;
27201;SDS011;14717;46.924;15.474;2023-02-28T10:42:02;16.02;;;6.65;;
27201;SDS011;14717;46.924;15.474;2023-02-28T10:44:28;14.70;;;6.38;;
27201;SDS011;14717;46.924;15.474;2023-02-28T10:46:54;13.70;;;6.47;;
27201;SDS011;14717;46.924;15.474;2023-02-28T10:49:22;14.32;;;6.88;;
27201;SDS011;14717;46.924;15.474;2023-02-28T10:51:52;11.90;;;6.53;;
27201;SDS011;14717;46.924;15.474;2023-02-28T10:54:22;13.40;;;6.32;;
27201;SDS011;14717;46.924;15.474;2023-02-28T10:59:40;14.63;;;6.68;;
27201;SDS011;14717;46.924;15.474;2023-02-28T11:05:02;13.05;;;6.72;;
27201;SDS011;14717;46.924;15.474;2023-02-28T11:07:50;10.27;;;6.05;;
27201;SDS011;14717;46.924;15.474;2023-02-28T11:10:20;16.00;;;6.75;;
27201;SDS011;14717;46.924;15.474;2023-02-28T11:12:50;12.18;;;5.75;;
27201;SDS011;14717;46.924;15.474;2023-02-28T11:15:30;13.75;;;7.18;;
27201;SDS011;14717;46.924;15.474;2023-02-28T11:18:02;15.00;;;7.30;;
27201;SDS011;14717;46.924;15.474;2023-02-28T11:20:52;15.45;;;7.00;;
27201;SDS011;14717;46.924;15.474;2023-02-28T11:23:20;12.50;;;6.75;;
27201;SDS011;14717;46.924;15.474;2023-02-28T11:25:54;15.57;;;6.95;;
27201;SDS011;14717;46.924;15.474;2023-02-28T11:31:00;14.95;;;6.95;;
27201;SDS011;14717;46.924;15.474;2023-02-28T11:36:23;16.92;;;6.60;;
27201;SDS011;14717;46.924;15.474;2023-02-28T11:38:50;12.98;;;6.63;;
27201;SDS011;14717;46.924;15.474;2023-02-28T11:43:56;13.95;;;7.22;;
27201;SDS011;14717;46.924;15.474;2023-02-28T11:52:11;13.50;;;7.32;;
27201;SDS011;14717;46.924;15.474;2023-02-28T11:57:50;12.25;;;6.30;;
27201;SDS011;14717;46.924;15.474;2023-02-28T12:02:50;14.55;;;7.13;;
27201;SDS011;14717;46.924;15.474;2023-02-28T12:05:54;13.82;;;6.80;;
27201;SDS011;14717;46.924;15.474;2023-02-28T12:11:19;15.18;;;7.00;;
27201;SDS011;14717;46.924;15.474;2023-02-28T12:13:51;12.93;;;6.88;;
27201;SDS011;14717;46.924;15.474;2023-02-28T12:19:16;15.40;;;7.03;;
27201;SDS011;14717;46.924;15.474;2023-02-28T12:21:58;17.05;;;7.72;;
27201;SDS011;14717;46.924;15.474;2023-02-28T12:24:36;13.63;;;7.38;;
27201;SDS011;14717;46.924;15.474;2023-02-28T12:27:10;13.98;;;6.93;;
27201;SDS011;14717;46.924;15.474;2023-02-28T12:32:16;13.90;;;7.20;;
27201;SDS011;14717;46.924;15.474;2023-02-28T12:34:56;17.58;;;7.07;;
27201;SDS011;14717;46.924;15.474;2023-02-28T12:37:29;14.38;;;7.03;;
27201;SDS011;14717;46.924;15.474;2023-02-28T12:42:31;15.75;;;7.63;;
27201;SDS011;14717;46.924;15.474;2023-02-28T12:45:02;20.30;;;7.22;;
27201;SDS011;14717;46.924;15.474;2023-02-28T12:47:34;14.85;;;7.22;;
27201;SDS011;14717;46.924;15.474;2023-02-28T12:50:00;14.20;;;7.22;;
27201;SDS011;14717;46.924;15.474;2023-02-28T12:52:51;17.33;;;7.63;;
27201;SDS011;14717;46.924;15.474;2023-02-28T12:56:01;16.52;;;7.72;;
27201;SDS011;14717;46.924;15.474;2023-02-28T13:03:51;17.80;;;7.23;;
27201;SDS011;14717;46.924;15.474;2023-02-28T13:09:15;16.45;;;7.18;;
27201;SDS011;14717;46.924;15.474;2023-02-28T13:14:16;18.17;;;7.40;;
27201;SDS011;14717;46.924;15.474;2023-02-28T13:16:57;15.48;;;7.15;;
27201;SDS011;14717;46.924;15.474;2023-02-28T13:20:13;14.38;;;7.45;;
27201;SDS011;14717;46.924;15.474;2023-02-28T13:22:43;17.08;;;7.50;;
27201;SDS011;14717;46.924;15.474;2023-02-28T13:27:52;18.08;;;8.02;;
27201;SDS011;14717;46.924;15.474;2023-02-28T13:36:01;17.00;;;7.07;;
27201;SDS011;14717;46.924;15.474;2023-02-28T13:38:34;14.05;;;6.78;;
27201;SDS011;14717;46.924;15.474;2023-02-28T13:44:39;13.77;;;7.43;;
27201;SDS011;14717;46.924;15.474;2023-02-28T13:51:53;19.92;;;7.57;;
27201;SDS011;14717;46.924;15.474;2023-02-28T14:00:08;17.13;;;7.50;;
27201;SDS011;14717;46.924;15.474;2023-02-28T14:02:47;15.15;;;7.00;;
27201;SDS011;14717;46.924;15.474;2023-02-28T14:05:32;15.10;;;7.93;;
27201;SDS011;14717;46.924;15.474;2023-02-28T14:07:59;15.00;;;6.93;;
27201;SDS011;14717;46.924;15.474;2023-02-28T14:10:41;14.30;;;7.10;;
27201;SDS011;14717;46.924;15.474;2023-02-28T14:15:56;15.60;;;6.72;;
27201;SDS011;14717;46.924;15.474;2023-02-28T14:18:31;16.83;;;7.45;;
27201;SDS011;14717;46.924;15.474;2023-02-28T14:21:43;15.13;;;6.68;;
27201;SDS011;14717;46.924;15.474;2023-02-28T14:24:02;15.13;;;7.25;;
27201;SDS011;14717;46.924;15.474;2023-02-28T14:26:58;14.63;;;7.10;;
27201;SDS011;14717;46.924;15.474;2023-02-28T14:38:05;13.23;;;6.38;;
27201;SDS011;14717;46.924;15.474;2023-02-28T14:40:34;20.45;;;7.35;;
27201;SDS011;14717;46.924;15.474;2023-02-28T14:43:04;14.65;;;7.65;;
27201;SDS011;14717;46.924;15.474;2023-02-28T14:45:34;14.40;;;6.70;;
27201;SDS011;14717;46.924;15.474;2023-02-28T14:48:02;18.48;;;6.82;;
27201;SDS011;14717;46.924;15.474;2023-02-28T14:50:34;14.20;;;7.03;;
27201;SDS011;14717;46.924;15.474;2023-02-28T14:53:02;16.55;;;7.35;;
27201;SDS011;14717;46.924;15.474;2023-02-28T14:55:30;14.30;;;6.50;;
27201;SDS011;14717;46.924;15.474;2023-02-28T14:57:57;12.70;;;6.50;;
27201;SDS011;14717;46.924;15.474;2023-02-28T15:00:26;15.52;;;6.65;;
27201;SDS011;14717;46.924;15.474;2023-02-28T15:02:54;16.85;;;6.45;;
27201;SDS011;14717;46.924;15.474;2023-02-28T15:05:31;14.73;;;6.50;;
27201;SDS011;14717;46.924;15.474;2023-02-28T15:08:16;13.75;;;6.63;;
27201;SDS011;14717;46.924;15.474;2023-02-28T15:11:27;13.25;;;6.38;;
27201;SDS011;14717;46.924;15.474;2023-02-28T15:13:49;15.85;;;6.63;;
27201;SDS011;14717;46.924;15.474;2023-02-28T15:16:17;13.70;;;6.07;;
27201;SDS011;14717;46.924;15.474;2023-02-28T15:21:23;15.35;;;6.55;;
27201;SDS011;14717;46.924;15.474;2023-02-28T15:23:57;18.60;;;7.03;;
27201;SDS011;14717;46.924;15.474;2023-02-28T15:28:57;14.07;;;5.80;;
27201;SDS011;14717;46.924;15.474;2023-02-28T15:31:29;14.88;;;6.70;;
27201;SDS011;14717;46.924;15.474;2023-02-28T15:33:57;16.52;;;6.90;;
27201;SDS011;14717;46.924;15.474;2023-02-28T15:36:32;16.30;;;6.55;;
27201;SDS011;14717;46.924;15.474;2023-02-28T15:39:02;12.45;;;6.38;;
27201;SDS011;14717;46.924;15.474;2023-02-28T15:41:43;15.88;;;7.25;;
27201;SDS011;14717;46.924;15.474;2023-02-28T15:44:16;17.35;;;7.35;;
27201;SDS011;14717;46.924;15.474;2023-02-28T15:46:43;16.38;;;6.63;;
27201;SDS011;14717;46.924;15.474;2023-02-28T15:49:19;14.90;;;7.18;;
27201;SDS011;14717;46.924;15.474;2023-02-28T15:51:45;17.55;;;6.72;;
27201;SDS011;14717;46.924;15.474;2023-02-28T15:54:16;11.85;;;5.97;;
27201;SDS011;14717;46.924;15.474;2023-02-28T15:56:46;13.07;;;6.30;;
27201;SDS011;14717;46.924;15.474;2023-02-28T15:59:19;16.98;;;6.82;;
27201;SDS011;14717;46.924;15.474;2023-02-28T16:02:01;13.70;;;6.53;;
27201;SDS011;14717;46.924;15.474;2023-02-28T16:07:37;13.07;;;6.20;;
27201;SDS011;14717;46.924;15.474;2023-02-28T16:10:04;14.80;;;6.30;;
27201;SDS011;14717;46.924;15.474;2023-02-28T16:12:32;12.98;;;6.32;;
27201;SDS011;14717;46.924;15.474;2023-02-28T16:15:00;14.48;;;6.60;;
27201;SDS011;14717;46.924;15.474;2023-02-28T16:17:31;12.90;;;6.38;;
27201;SDS011;14717;46.924;15.474;2023-02-28T16:19:59;12.88;;;5.65;;
27201;SDS011;14717;46.924;15.474;2023-02-28T16:22:24;12.25;;;5.75;;
27201;SDS011;14717;46.924;15.474;2023-02-28T16:24:50;15.27;;;6.40;;
27201;SDS011;14717;46.924;15.474;2023-02-28T16:27:27;16.70;;;6.53;;
27201;SDS011;14717;46.924;15.474;2023-02-28T16:29:56;14.30;;;6.45;;
27201;SDS011;14717;46.924;15.474;2023-02-28T16:32:21;13.82;;;6.63;;
27201;SDS011;14717;46.924;15.474;2023-02-28T16:34:47;11.52;;;6.10;;
27201;SDS011;14717;46.924;15.474;2023-02-28T16:37:13;12.55;;;5.63;;
27201;SDS011;14717;46.924;15.474;2023-02-28T16:39:40;13.07;;;6.47;;
27201;SDS011;14717;46.924;15.474;2023-02-28T16:42:08;13.10;;;6.15;;
27201;SDS011;14717;46.924;15.474;2023-02-28T16:44:56;14.38;;;6.07;;
27201;SDS011;14717;46.924;15.474;2023-02-28T16:47:23;13.73;;;6.50;;
27201;SDS011;14717;46.924;15.474;2023-02-28T16:49:48;15.65;;;6.68;;
27201;SDS011;14717;46.924;15.474;2023-02-28T16:52:14;12.85;;;5.97;;
27201;SDS011;14717;46.924;15.474;2023-02-28T16:54:40;11.75;;;5.93;;
27201;SDS011;14717;46.924;15.474;2023-02-28T16:59:38;10.88;;;5.88;;
27201;SDS011;14717;46.924;15.474;2023-02-28T17:02:09;13.95;;;6.10;;
27201;SDS011;14717;46.924;15.474;2023-02-28T17:04:37;11.02;;;5.75;;
27201;SDS011;14717;46.924;15.474;2023-02-28T17:07:02;18.70;;;6.82;;
27201;SDS011;14717;46.924;15.474;2023-02-28T17:09:27;13.23;;;6.55;;